Share

Iliamna, AK (99606)

Iliamna (PAIL) Elev 161 ft | 59.75 °N, 154.91 °W | Change Station

Current weather conditions updated 34 minutes ago

Clear
Clear
42 °F
Feels Like 38 °F
N
6
Wind Variable Wind from North
Sunrise 6:50 AM
Sunset 9:50 PM
Moon Waning Gibbous

Today is forecast to be nearly the same temperature as yesterday.

Pressure 29.62 in
Visibility 10.0 miles
Clouds Clear
Windchill 38 °F
Dew Point 24 °F
Humidity 49%
Rainfall 0.00 in
Snow Depth Not available.
UV 2 out of 16
Pollen Not available.
Air Quality Not available.
Flu Activity Sporadic
METAR PAIL 201753Z 35005KT 10SM CLR 06/M04 A2961 RMK AO2 SLP030 T00561044 10061 20000 51018

More Conditions Fewer Conditions

Pressure 29.62 in
Visibility 10.0 miles
Clouds Clear
Windchill 38 °F
Dew Point 24 °F
Humidity 49%
Rainfall 0.00 in
Snow Depth Not available.
UV 2 out of 16
Pollen Not available.
Air Quality Not available.
Flu Activity Sporadic
METAR PAIL 201753Z 35005KT 10SM CLR 06/M04 A2961 RMK AO2 SLP030 T00561044 10061 20000 51018

More Conditions Fewer Conditions

10-Day Weather Forecast

Almanac

Astronomy

Apr. 20, 2014 Rise Set
Actual Time 6:50 AM AKDT 9:50 PM AKDT
Civil Twilight 6:03 AM AKDT 10:38 PM AKDT
Nautical Twilight 4:58 AM AKDT 11:44 PM AKDT
Astronomical Twilight 3:13 AM AKDT 1:38 AM AKDT
Moon 3:10 AM AKDT 10:53 AM AKDT
Length of Visible Light 16h 35m
Length of Day
15h 00m
Tomorrow will be 5m 16s longer.
Waning Gibbous, 68% of the Moon is Illuminated
Today
Waning Gibbous
Apr 22
Last Quarter
Apr 29
New
May 6
First Quarter
May 14
Full

Today's Extremes

State Highs State Lows

Community

  • Columbine
    Columbine
  • Easter Sunrise
    Easter Sunrise
  • Easter Eve - The Promise - Lake Palestine, TX
    Easter Eve - The Promise - Lake Palestine, TX
  • Happy Easter
    Happy Easter
  • EARLY FOGGY MORNING
    EARLY FOGGY MORNING

WunderPhotos

Upload Photos

1,703,299 photos uploaded!

WunderBlogs® & News

Nearby

Snow Depth

Station Depth Elevation
Mcneil Canyon 8 in 1320 ft
Port Graham 7 in 300 ft
MF Bradley River 21 in 2300 ft
Nuka Glacier 33 in 1250 ft
Cooper Lake 20 in 1200 ft

Coastal Water Temperatures

Place Temperature
No Stations Reporting

Earthquake Activity

City Distance Mag. Time & Date
No recent earthquake activity has been reported nearby.
Minimum magnitude displayed is 2.5.

Nearby Weather Stations

Station Location Temp. Windchill Dew Point Humidity Wind Precip. Elev Updated Type
HADS UPPER TALARIK C NR ILIAMNA AK , Pedro Bay, AK 32 °F 32 °F - - North  at  - 0.00 in / hr 556 ft 8:00 AM AKDT MADIS
HADS KOKTULI R NR ILIAMNA AK , Iliamna, AK 37 °F 37 °F - - North  at  - 0.00 in / hr 851 ft 9:00 AM AKDT MADIS
HADS NF KOKTULI R NR ILIAMNA AK , Iliamna, AK 38 °F 38 °F - - North  at  - 0.00 in / hr 675 ft 9:00 AM AKDT MADIS

Show More Stations Show Fewer Stations

What do you think?

We're not finished. Please let us know what you like, what you don't like, and what you are still missing.